Galeon Andalucia — EAIZ — position and weather

sailwx.info

Track history (hours):
 
Tides and Currents Weather Stations Pressure Air Temp Water Temp Dewpoint Dewpoint Depression Visibility Wind Speed Wind Dir Waves Ship Positions

Galeon Andalucia

Last reported at 2018-Aug-01 05:47 UTC. Time now 2018-Aug-14 07:05 UTC.
Position N 48°47' W 002°25'.
Warning: this ship's position is 13 days out of date.

Length 47 m; draft 3.2 m.

Type: Ship. MMSI: 225356000.

Date/timePositionNaut miles runAvg speedWind from/ knotsBaromVisibWave heightAir tempDewpointWater temp
2018-Aug-01 05:47N 48°47' W 002°25'22 9.4
2018-Aug-01 03:25N 48°57' W 002°55'4 7.3
2018-Aug-01 02:54N 48°58' W 003°01'3 6.8
2018-Aug-01 02:29N 48°58' W 003°05'3 6.3
2018-Aug-01 02:00N 48°59' W 003°10'3 6.2
2018-Aug-01 01:29N 48°59' W 003°14'52 7.8
2018-Jul-31 18:48N 48°47' W 004°32'310.0
2018-Jul-31 18:30N 48°46' W 004°36'510.1
2018-Jul-31 18:00N 48°45' W 004°43'5 9.9
2018-Jul-31 17:30N 48°43' W 004°51'5 9.4
2018-Jul-31 17:00N 48°42' W 004°57'4 9.0
2018-Jul-31 16:30N 48°41' W 005°04'4 8.8
2018-Jul-31 16:00N 48°39' W 005°10'4 8.6
2018-Jul-31 15:29N 48°37' W 005°16'20 4.8
2018-Jul-31 11:18N 48°18' W 005°05'1 4.8
2018-Jul-31 11:00N 48°17' W 005°04'3 5.0
2018-Jul-31 10:30N 48°15' W 005°01'3 5.2
2018-Jul-31 10:00N 48°14' W 004°57'3 5.4
2018-Jul-31 09:30N 48°13' W 004°54'3 6.0
2018-Jul-31 09:00N 48°12' W 004°50'3 6.0
2018-Jul-31 08:30N 48°11' W 004°45'3 6.2
2018-Jul-31 08:00N 48°10' W 004°41'3 6.3
2018-Jul-31 07:30N 48°09' W 004°36'3 6.6
2018-Jul-31 07:00N 48°08' W 004°31'3 7.0
2018-Jul-31 06:30N 48°08' W 004°26'4 7.5
2018-Jul-31 06:00N 48°07' W 004°21'1 2.7
2018-Jul-31 05:30N 48°06' W 004°19'0 0.1
2018-Jul-31 05:00N 48°06' W 004°19'0 0.1
2018-Jul-31 04:30N 48°06' W 004°19'  
2018-Jul-25 06:20N 48°06' W 004°19'0 0.0
2018-Jul-25 05:59N 48°06' W 004°19'0 0.1
2018-Jul-25 05:30N 48°06' W 004°19'2 2.1
2018-Jul-25 04:47N 48°07' W 004°21'1 4.5
2018-Jul-25 04:30N 48°07' W 004°23'3 6.8
2018-Jul-25 04:00N 48°08' W 004°28'3 4.1
2018-Jul-25 03:13N 48°09' W 004°32'1 4.3
2018-Jul-25 03:00N 48°09' W 004°31'2 3.7
2018-Jul-25 02:31N 48°08' W 004°28'2 3.9
2018-Jul-25 02:00N 48°08' W 004°26'2 4.0
2018-Jul-25 01:30N 48°08' W 004°23'1 2.6
2018-Jul-25 01:00N 48°08' W 004°25'2 4.5
2018-Jul-25 00:27N 48°08' W 004°28'3 4.5
2018-Jul-24 23:43N 48°09' W 004°33'0 0.9
2018-Jul-24 23:28N 48°09' W 004°33'2 4.0
2018-Jul-24 23:00N 48°08' W 004°30'2 4.3
2018-Jul-24 22:30N 48°08' W 004°27'2 4.4
2018-Jul-24 22:00N 48°07' W 004°24'2 3.8
2018-Jul-24 21:30N 48°07' W 004°21'1 2.9
2018-Jul-24 21:00N 48°06' W 004°19'2 3.2
2018-Jul-24 20:18N 48°07' W 004°22'3 8.6
2018-Jul-24 19:58N 48°07' W 004°27'4 8.6
2018-Jul-24 19:28N 48°09' W 004°33'4 8.0
2018-Jul-24 19:00N 48°09' W 004°38'4 8.1
2018-Jul-24 18:30N 48°11' W 004°44'4 8.3
2018-Jul-24 17:59N 48°12' W 004°50'4 8.6
2018-Jul-24 17:29N 48°14' W 004°56'183 6.0
2018-Jul-23 11:06N 49°38' W 000°48'2 8.9
2018-Jul-23 10:50N 49°38' W 000°45'3 9.0
2018-Jul-23 10:30N 49°37' W 000°40'17 8.5
2018-Jul-23 08:32N 49°32' W 000°16'0 7.6
2018-Jul-23 08:30N 49°32' W 000°15'5 7.5
2018-Jul-23 07:54N 49°30' W 000°09'3 7.4
2018-Jul-23 07:30N 49°29' W 000°04'4 7.4
2018-Jul-23 07:01N 49°28' E 000°01'4 7.4
2018-Jul-23 06:31N 49°26' E 000°06'4 7.5
2018-Jul-23 06:00N 49°26' E 000°12'2 3.3
2018-Jul-23 05:30N 49°25' E 000°14'0 0.1
2018-Jul-23 05:01N 49°25' E 000°14'0 0.0
2018-Jul-23 04:30N 49°25' E 000°14'  
Track history (hours):
 
Tides and Currents Weather Stations Pressure Air Temp Water Temp Dewpoint Dewpoint Depression Visibility Wind Speed Wind Dir Waves Ship Positions

Galeon Andalucia

Last reported at 2018-Aug-01 05:47 UTC. Time now 2018-Aug-14 07:05 UTC.
Position N 48°47' W 002°25'.
Warning: this ship's position is 13 days out of date.

Length 47 m; draft 3.2 m.

Type: Ship. MMSI: 225356000.

Date/timePositionNaut miles runAvg speedWind from/ knotsBaromVisibWave heightAir tempDewpointWater temp
2018-Aug-01 05:47N 48°47' W 002°25'22 9.4
2018-Aug-01 03:25N 48°57' W 002°55'4 7.3
2018-Aug-01 02:54N 48°58' W 003°01'3 6.8
2018-Aug-01 02:29N 48°58' W 003°05'3 6.3
2018-Aug-01 02:00N 48°59' W 003°10'3 6.2
2018-Aug-01 01:29N 48°59' W 003°14'52 7.8
2018-Jul-31 18:48N 48°47' W 004°32'310.0
2018-Jul-31 18:30N 48°46' W 004°36'510.1
2018-Jul-31 18:00N 48°45' W 004°43'5 9.9
2018-Jul-31 17:30N 48°43' W 004°51'5 9.4
2018-Jul-31 17:00N 48°42' W 004°57'4 9.0
2018-Jul-31 16:30N 48°41' W 005°04'4 8.8
2018-Jul-31 16:00N 48°39' W 005°10'4 8.6
2018-Jul-31 15:29N 48°37' W 005°16'20 4.8
2018-Jul-31 11:18N 48°18' W 005°05'1 4.8
2018-Jul-31 11:00N 48°17' W 005°04'3 5.0
2018-Jul-31 10:30N 48°15' W 005°01'3 5.2
2018-Jul-31 10:00N 48°14' W 004°57'3 5.4
2018-Jul-31 09:30N 48°13' W 004°54'3 6.0
2018-Jul-31 09:00N 48°12' W 004°50'3 6.0
2018-Jul-31 08:30N 48°11' W 004°45'3 6.2
2018-Jul-31 08:00N 48°10' W 004°41'3 6.3
2018-Jul-31 07:30N 48°09' W 004°36'3 6.6
2018-Jul-31 07:00N 48°08' W 004°31'3 7.0
2018-Jul-31 06:30N 48°08' W 004°26'4 7.5
2018-Jul-31 06:00N 48°07' W 004°21'1 2.7
2018-Jul-31 05:30N 48°06' W 004°19'0 0.1
2018-Jul-31 05:00N 48°06' W 004°19'0 0.1
2018-Jul-31 04:30N 48°06' W 004°19'  
2018-Jul-25 06:20N 48°06' W 004°19'0 0.0
2018-Jul-25 05:59N 48°06' W 004°19'0 0.1
2018-Jul-25 05:30N 48°06' W 004°19'2 2.1
2018-Jul-25 04:47N 48°07' W 004°21'1 4.5
2018-Jul-25 04:30N 48°07' W 004°23'3 6.8
2018-Jul-25 04:00N 48°08' W 004°28'3 4.1
2018-Jul-25 03:13N 48°09' W 004°32'1 4.3
2018-Jul-25 03:00N 48°09' W 004°31'2 3.7
2018-Jul-25 02:31N 48°08' W 004°28'2 3.9
2018-Jul-25 02:00N 48°08' W 004°26'2 4.0
2018-Jul-25 01:30N 48°08' W 004°23'1 2.6
2018-Jul-25 01:00N 48°08' W 004°25'2 4.5
2018-Jul-25 00:27N 48°08' W 004°28'3 4.5
2018-Jul-24 23:43N 48°09' W 004°33'0 0.9
2018-Jul-24 23:28N 48°09' W 004°33'2 4.0
2018-Jul-24 23:00N 48°08' W 004°30'2 4.3
2018-Jul-24 22:30N 48°08' W 004°27'2 4.4
2018-Jul-24 22:00N 48°07' W 004°24'2 3.8
2018-Jul-24 21:30N 48°07' W 004°21'1 2.9
2018-Jul-24 21:00N 48°06' W 004°19'2 3.2
2018-Jul-24 20:18N 48°07' W 004°22'3 8.6
2018-Jul-24 19:58N 48°07' W 004°27'4 8.6
2018-Jul-24 19:28N 48°09' W 004°33'4 8.0
2018-Jul-24 19:00N 48°09' W 004°38'4 8.1
2018-Jul-24 18:30N 48°11' W 004°44'4 8.3
2018-Jul-24 17:59N 48°12' W 004°50'4 8.6
2018-Jul-24 17:29N 48°14' W 004°56'183 6.0
2018-Jul-23 11:06N 49°38' W 000°48'2 8.9
2018-Jul-23 10:50N 49°38' W 000°45'3 9.0
2018-Jul-23 10:30N 49°37' W 000°40'17 8.5
2018-Jul-23 08:32N 49°32' W 000°16'0 7.6
2018-Jul-23 08:30N 49°32' W 000°15'5 7.5
2018-Jul-23 07:54N 49°30' W 000°09'3 7.4
2018-Jul-23 07:30N 49°29' W 000°04'4 7.4
2018-Jul-23 07:01N 49°28' E 000°01'4 7.4
2018-Jul-23 06:31N 49°26' E 000°06'4 7.5
2018-Jul-23 06:00N 49°26' E 000°12'2 3.3
2018-Jul-23 05:30N 49°25' E 000°14'0 0.1
2018-Jul-23 05:01N 49°25' E 000°14'0 0.0
2018-Jul-23 04:30N 49°25' E 000°14'  

Dump ship's entire track history